Wyoming, Nebraska
Current Conditions -  °F | °C
As of 6:55 AM on Saturday 01 Nov 2014 (Local Time) from KAFK Reporting Station
Clear Clear  
Wind Chill: 18°   Ceiling: Unl
Heat Index: 25°   Visibility: 10mi
Dew Point: 17°   Wind: 6mph
Humidity: 71%   Direction: 150°SSE
Pressure: 30.43"   Gusts: NA
Location:  40.6534°N, 95.8738°W
Report Text: KAFK 011155Z AUTO 15005KT 10SM CLR M04/M09 A3043 RMK AO2 T10401086 10000 21044
Loading
Personal Weather Stations






























Interactive Weather Map
Tropical Storm Tracking
New forecast layout! Learn more

10-Day Weather Forecast

Advertisements
Track Severe Weather on mobile